Time;durP1;ratioP1;P1;durP2;ratioP2;P2;SDS_P1;SDS_P2;PMS_P1;PMS_P2;Temp;Humidity;BMP_temperature;BMP_pressure;BME280_temperature;BME280_humidity;BME280_pressure;Samples;Min_cycle;Max_cycle;Signal;HPM_P1;HPM_P2
2023/11/15 00:01:50;;;;;;;9.57;2.20;;;;;;;;;;5049523;28;20017;-87
2023/11/15 00:04:19;;;;;;;5.50;1.48;;;;;;;;;;5050385;28;20067;-88
2023/11/15 00:06:44;;;;;;;7.90;2.10;;;;;;;;;;5045103;28;20026;-87
2023/11/15 00:09:10;;;;;;;10.88;2.22;;;;;;;;;;5043397;28;20079;-88
2023/11/15 00:11:43;;;;;;;15.40;2.42;;;;;;;;;;5051275;28;20058;-87
2023/11/15 00:14:10;;;;;;;9.18;2.17;;;;;;;;;;5049898;28;20078;-87
2023/11/15 00:16:35;;;;;;;11.30;1.92;;;;;;;;;;5049874;28;20494;-88
2023/11/15 00:19:03;;;;;;;18.60;2.80;;;;;;;;;;5049205;28;20056;-88
2023/11/15 00:21:28;;;;;;;11.35;2.30;;;;;;;;;;5049620;28;20467;-88
2023/11/15 00:23:54;;;;;;;11.63;2.33;;;;;;;;;;5049106;28;20021;-87
2023/11/15 00:26:20;;;;;;;14.63;2.30;;;;;;;;;;5051217;28;20089;-88
2023/11/15 00:28:46;;;;;;;10.07;2.40;;;;;;;;;;5050910;28;20109;-88
2023/11/15 00:31:11;;;;;;;13.02;1.90;;;;;;;;;;5049277;28;20021;-87
2023/11/15 00:33:40;;;;;;;12.93;2.42;;;;;;;;;;5049605;28;20456;-87
2023/11/15 00:36:08;;;;;;;14.25;2.35;;;;;;;;;;5048866;28;20052;-87
2023/11/15 00:38:35;;;;;;;8.13;2.10;;;;;;;;;;5050626;28;20436;-87
2023/11/15 00:41:01;;;;;;;21.83;2.55;;;;;;;;;;5053393;28;20512;-87
2023/11/15 00:43:29;;;;;;;15.32;2.88;;;;;;;;;;5053441;28;20120;-87
2023/11/15 00:45:54;;;;;;;12.82;2.55;;;;;;;;;;5053625;28;20384;-87
2023/11/15 00:48:20;;;;;;;11.45;1.55;;;;;;;;;;5054080;28;20021;-87
2023/11/15 00:50:45;;;;;;;15.38;2.25;;;;;;;;;;5055158;28;20059;-87
2023/11/15 00:53:10;;;;;;;8.52;1.83;;;;;;;;;;5054131;28;20047;-87
2023/11/15 00:55:35;;;;;;;11.02;2.00;;;;;;;;;;5053446;28;20756;-87
2023/11/15 00:58:03;;;;;;;12.48;2.28;;;;;;;;;;5054757;28;20045;-87
2023/11/15 01:00:38;;;;;;;12.70;2.35;;;;;;;;;;5054066;28;20033;-87
2023/11/15 01:03:04;;;;;;;11.43;1.55;;;;;;;;;;5054411;28;20032;-87
2023/11/15 01:05:30;;;;;;;7.43;1.63;;;;;;;;;;5054136;28;20124;-87
2023/11/15 01:07:55;;;;;;;9.07;1.88;;;;;;;;;;5053663;28;20457;-87
2023/11/15 01:10:21;;;;;;;13.00;2.25;;;;;;;;;;5053953;28;20087;-87
2023/11/15 01:12:46;;;;;;;20.27;2.38;;;;;;;;;;5053712;28;20123;-87
2023/11/15 01:15:12;;;;;;;5.72;2.03;;;;;;;;;;5050594;28;20065;-86
2023/11/15 01:17:38;;;;;;;16.92;3.28;;;;;;;;;;5054487;28;20083;-86
2023/11/15 01:20:06;;;;;;;16.13;2.03;;;;;;;;;;5073651;28;20036;-86
2023/11/15 01:22:32;;;;;;;12.23;2.25;;;;;;;;;;5053907;28;20462;-87
2023/11/15 01:25:03;;;;;;;7.20;1.92;;;;;;;;;;5055919;28;20059;-87
2023/11/15 01:27:29;;;;;;;13.90;1.65;;;;;;;;;;5051233;28;20453;-87
2023/11/15 01:29:55;;;;;;;18.75;1.80;;;;;;;;;;5054931;28;20028;-87
2023/11/15 01:32:20;;;;;;;8.18;1.77;;;;;;;;;;5053330;28;20063;-87
2023/11/15 01:34:45;;;;;;;16.42;2.00;;;;;;;;;;5065255;28;20132;-87
2023/11/15 01:37:10;;;;;;;11.23;2.08;;;;;;;;;;5055514;28;20019;-87
2023/11/15 01:39:38;;;;;;;11.07;2.00;;;;;;;;;;5052903;28;20025;-87
2023/11/15 01:42:06;;;;;;;9.13;1.90;;;;;;;;;;5053109;28;20024;-87
2023/11/15 01:44:33;;;;;;;14.32;1.73;;;;;;;;;;5054211;28;20013;-86
2023/11/15 01:46:59;;;;;;;9.68;1.65;;;;;;;;;;5053132;28;20017;-87
2023/11/15 01:49:24;;;;;;;19.67;2.10;;;;;;;;;;5053663;28;20023;-87
2023/11/15 01:51:50;;;;;;;11.40;1.77;;;;;;;;;;5063841;28;20080;-87
2023/11/15 01:54:16;;;;;;;11.18;1.80;;;;;;;;;;5053783;28;20044;-87
2023/11/15 01:56:44;;;;;;;10.85;2.35;;;;;;;;;;5063575;28;20022;-87
2023/11/15 01:59:09;;;;;;;15.77;1.90;;;;;;;;;;5056722;28;20025;-87
2023/11/15 02:01:35;;;;;;;15.77;2.05;;;;;;;;;;5053782;28;20028;-87
2023/11/15 02:04:00;;;;;;;12.77;1.77;;;;;;;;;;5051628;28;20025;-87
2023/11/15 02:06:28;;;;;;;9.23;1.95;;;;;;;;;;5058273;28;20025;-86
2023/11/15 02:08:53;;;;;;;12.10;1.98;;;;;;;;;;5060772;28;20464;-87
2023/11/15 02:11:21;;;;;;;13.07;1.98;;;;;;;;;;5058713;28;20071;-87
2023/11/15 02:13:51;;;;;;;8.55;1.63;;;;;;;;;;5061919;28;20013;-87
2023/11/15 02:16:16;;;;;;;6.22;1.60;;;;;;;;;;5052751;28;20497;-86
2023/11/15 02:18:42;;;;;;;10.32;1.33;;;;;;;;;;5052498;28;20519;-86
2023/11/15 02:21:09;;;;;;;10.65;1.60;;;;;;;;;;5052267;28;20520;-86
2023/11/15 02:23:41;;;;;;;13.02;1.80;;;;;;;;;;5052741;28;20017;-86
2023/11/15 02:26:06;;;;;;;19.60;1.90;;;;;;;;;;5053549;28;20460;-86
2023/11/15 02:28:32;;;;;;;13.02;1.90;;;;;;;;;;5067581;28;20029;-86
2023/11/15 02:30:57;;;;;;;17.25;2.15;;;;;;;;;;5062125;28;20089;-86
2023/11/15 02:33:22;;;;;;;13.13;2.65;;;;;;;;;;5069999;28;20058;-86
2023/11/15 02:35:47;;;;;;;10.60;1.60;;;;;;;;;;5052082;28;20017;-86
2023/11/15 02:38:16;;;;;;;12.32;2.03;;;;;;;;;;5052315;28;20017;-87
2023/11/15 02:40:42;;;;;;;19.33;2.45;;;;;;;;;;5058813;28;20051;-86
2023/11/15 02:43:07;;;;;;;14.85;1.73;;;;;;;;;;5059481;28;20059;-86
2023/11/15 02:45:35;;;;;;;21.15;1.90;;;;;;;;;;5051926;28;20028;-86
2023/11/15 02:48:00;;;;;;;13.77;2.58;;;;;;;;;;5052160;28;20024;-86
2023/11/15 02:50:32;;;;;;;11.95;2.40;;;;;;;;;;5051587;28;20025;-85
2023/11/15 02:52:57;;;;;;;13.17;1.50;;;;;;;;;;5052119;28;20468;-86
2023/11/15 02:55:23;;;;;;;20.23;2.03;;;;;;;;;;5067626;28;20016;-86
2023/11/15 02:57:48;;;;;;;11.90;1.67;;;;;;;;;;5061540;28;20025;-86
2023/11/15 03:00:14;;;;;;;10.57;1.70;;;;;;;;;;5053143;28;20108;-86
2023/11/15 03:02:39;;;;;;;19.88;2.28;;;;;;;;;;5058904;28;20032;-87
2023/11/15 03:05:06;;;;;;;11.23;1.70;;;;;;;;;;5060200;28;20195;-86
2023/11/15 03:07:34;;;;;;;19.90;2.65;;;;;;;;;;5061591;28;20035;-87
2023/11/15 03:10:00;;;;;;;11.45;1.63;;;;;;;;;;5052254;28;20098;-86
2023/11/15 03:12:25;;;;;;;14.25;2.00;;;;;;;;;;5066934;28;20013;-86
2023/11/15 03:14:51;;;;;;;11.32;1.88;;;;;;;;;;5051493;28;20021;-86
2023/11/15 03:17:18;;;;;;;14.68;2.00;;;;;;;;;;5051204;28;20021;-86
2023/11/15 03:19:44;;;;;;;13.20;1.63;;;;;;;;;;5043456;28;20073;-86
2023/11/15 03:22:09;;;;;;;11.40;1.67;;;;;;;;;;5059429;28;20105;-86
2023/11/15 03:24:35;;;;;;;10.52;2.08;;;;;;;;;;5065192;28;20021;-86
2023/11/15 03:27:02;;;;;;;11.00;1.98;;;;;;;;;;5065980;28;20055;-86
2023/11/15 03:29:28;;;;;;;15.30;1.92;;;;;;;;;;5046917;28;20357;-86
2023/11/15 03:31:53;;;;;;;14.50;1.80;;;;;;;;;;5052831;28;20024;-86
2023/11/15 03:34:18;;;;;;;9.85;1.85;;;;;;;;;;5051096;28;20040;-86
2023/11/15 03:36:43;;;;;;;8.45;1.55;;;;;;;;;;5052460;28;20029;-86
2023/11/15 03:39:09;;;;;;;10.75;2.38;;;;;;;;;;5059395;28;20016;-85
2023/11/15 03:41:34;;;;;;;9.95;1.63;;;;;;;;;;5057333;28;20099;-86
2023/11/15 03:44:00;;;;;;;11.93;1.50;;;;;;;;;;5038827;28;20100;-85
2023/11/15 03:46:26;;;;;;;16.70;1.90;;;;;;;;;;5052623;28;20022;-86
2023/11/15 03:48:52;;;;;;;16.10;2.42;;;;;;;;;;5056392;28;20016;-86
2023/11/15 03:51:17;;;;;;;15.82;1.38;;;;;;;;;;5061421;28;20098;-86
2023/11/15 03:53:43;;;;;;;20.20;2.08;;;;;;;;;;5051389;28;20071;-86
2023/11/15 03:56:08;;;;;;;15.32;2.25;;;;;;;;;;5059228;28;20012;-86
2023/11/15 03:58:33;;;;;;;11.30;1.70;;;;;;;;;;5057443;28;20052;-86
2023/11/15 04:01:00;;;;;;;9.88;1.35;;;;;;;;;;5051137;28;20024;-86
2023/11/15 04:03:26;;;;;;;17.60;1.88;;;;;;;;;;5063397;28;20075;-86
2023/11/15 04:05:51;;;;;;;11.30;1.60;;;;;;;;;;5071169;28;20021;-87
2023/11/15 04:08:16;;;;;;;7.78;1.83;;;;;;;;;;5062897;28;20016;-85
2023/11/15 04:10:41;;;;;;;13.50;2.67;;;;;;;;;;5065063;28;20020;-86
2023/11/15 04:13:07;;;;;;;15.40;1.65;;;;;;;;;;5059031;28;20012;-86
2023/11/15 04:15:32;;;;;;;9.90;1.80;;;;;;;;;;5061704;28;20526;-86
2023/11/15 04:17:57;;;;;;;10.88;1.88;;;;;;;;;;5055105;28;20452;-86
2023/11/15 04:20:22;;;;;;;11.95;2.30;;;;;;;;;;5054977;28;20029;-86
2023/11/15 04:22:50;;;;;;;13.35;1.90;;;;;;;;;;5055166;28;20027;-86
2023/11/15 04:25:15;;;;;;;15.10;2.30;;;;;;;;;;5060883;28;20612;-86
2023/11/15 04:27:41;;;;;;;24.23;1.77;;;;;;;;;;5064595;28;20056;-86
2023/11/15 04:30:07;;;;;;;8.35;1.67;;;;;;;;;;5056092;28;20024;-85
2023/11/15 04:32:32;;;;;;;13.10;1.67;;;;;;;;;;5055214;28;20105;-86
2023/11/15 04:34:57;;;;;;;15.00;1.65;;;;;;;;;;5054801;28;20013;-86
2023/11/15 04:37:24;;;;;;;12.13;2.50;;;;;;;;;;5055167;28;20013;-86
2023/11/15 04:39:49;;;;;;;13.80;1.48;;;;;;;;;;5054446;28;20024;-86
2023/11/15 04:42:14;;;;;;;16.80;2.47;;;;;;;;;;5055813;28;20013;-86
2023/11/15 04:44:40;;;;;;;11.18;1.17;;;;;;;;;;5066503;28;20039;-86
2023/11/15 04:47:05;;;;;;;12.45;1.95;;;;;;;;;;5057286;28;20020;-86
2023/11/15 04:49:31;;;;;;;11.32;1.73;;;;;;;;;;5063733;28;20143;-86
2023/11/15 04:51:56;;;;;;;16.60;1.73;;;;;;;;;;5073206;28;20024;-86
2023/11/15 04:54:22;;;;;;;12.00;1.25;;;;;;;;;;5054326;28;20413;-87
2023/11/15 04:56:47;;;;;;;16.48;2.50;;;;;;;;;;5068941;28;20016;-86
2023/11/15 04:59:12;;;;;;;16.23;2.00;;;;;;;;;;5054862;28;20059;-86
2023/11/15 05:01:41;;;;;;;15.15;2.22;;;;;;;;;;5054615;28;20021;-86
2023/11/15 05:04:07;;;;;;;15.32;2.53;;;;;;;;;;5053967;28;20025;-87
2023/11/15 05:06:32;;;;;;;12.70;2.20;;;;;;;;;;5054418;28;20116;-86
2023/11/15 05:08:59;;;;;;;10.63;2.15;;;;;;;;;;5054439;28;20126;-86
2023/11/15 05:11:24;;;;;;;15.02;2.05;;;;;;;;;;5055589;28;20017;-85
2023/11/15 05:13:49;;;;;;;6.90;1.48;;;;;;;;;;5054019;28;20108;-87
2023/11/15 05:16:15;;;;;;;11.23;1.98;;;;;;;;;;5053734;28;20349;-87
2023/11/15 05:18:40;;;;;;;15.75;1.85;;;;;;;;;;5055338;28;20464;-87
2023/11/15 05:21:05;;;;;;;12.20;1.67;;;;;;;;;;5056751;28;20036;-87
2023/11/15 05:23:30;;;;;;;21.45;2.70;;;;;;;;;;5073569;28;20136;-87
2023/11/15 05:25:57;;;;;;;9.93;2.08;;;;;;;;;;5066168;28;20111;-87
2023/11/15 05:28:22;;;;;;;12.02;2.63;;;;;;;;;;5053387;28;20025;-86
2023/11/15 05:30:47;;;;;;;14.32;2.47;;;;;;;;;;5053781;28;20021;-87
2023/11/15 05:33:12;;;;;;;14.98;1.88;;;;;;;;;;5054147;28;20052;-86
2023/11/15 05:35:38;;;;;;;10.80;2.30;;;;;;;;;;5053503;28;20521;-86
2023/11/15 05:38:03;;;;;;;11.02;1.88;;;;;;;;;;5067845;28;20027;-87
2023/11/15 05:40:29;;;;;;;12.38;2.20;;;;;;;;;;5054543;28;20045;-86
2023/11/15 05:42:57;;;;;;;20.88;2.03;;;;;;;;;;5054467;28;20021;-87
2023/11/15 05:45:25;;;;;;;12.50;2.15;;;;;;;;;;5068773;28;20033;-86
2023/11/15 05:47:50;;;;;;;8.85;1.75;;;;;;;;;;5054649;28;20569;-87
2023/11/15 05:50:16;;;;;;;17.20;1.85;;;;;;;;;;5066895;28;20116;-87
2023/11/15 05:52:41;;;;;;;16.58;1.63;;;;;;;;;;5053381;28;20029;-87
2023/11/15 05:55:07;;;;;;;11.25;1.40;;;;;;;;;;5061132;28;20025;-87
2023/11/15 05:57:32;;;;;;;11.25;1.45;;;;;;;;;;5072561;28;20066;-87
2023/11/15 05:59:58;;;;;;;11.25;1.42;;;;;;;;;;5061843;28;20440;-87
2023/11/15 06:02:23;;;;;;;14.57;1.98;;;;;;;;;;5053552;28;20048;-87
2023/11/15 06:04:48;;;;;;;12.80;1.60;;;;;;;;;;5052652;28;20017;-87
2023/11/15 06:07:14;;;;;;;10.45;1.40;;;;;;;;;;5054527;28;20031;-87
2023/11/15 06:09:39;;;;;;;17.08;1.73;;;;;;;;;;5065865;28;20024;-87
2023/11/15 06:12:04;;;;;;;14.00;1.70;;;;;;;;;;5066605;28;20035;-87
2023/11/15 06:14:29;;;;;;;12.32;1.63;;;;;;;;;;5053717;28;20039;-86
2023/11/15 06:16:55;;;;;;;12.40;2.03;;;;;;;;;;5063836;28;20032;-87
2023/11/15 06:19:22;;;;;;;11.27;1.35;;;;;;;;;;5056914;28;20117;-87
2023/11/15 06:21:47;;;;;;;9.85;1.20;;;;;;;;;;5052900;28;20025;-87
2023/11/15 06:24:15;;;;;;;9.70;1.65;;;;;;;;;;5052130;28;20036;-86
2023/11/15 06:26:44;;;;;;;6.50;1.23;;;;;;;;;;5052849;28;20028;-85
2023/11/15 06:29:11;;;;;;;16.70;1.92;;;;;;;;;;5052683;28;20025;-86
2023/11/15 06:31:36;;;;;;;18.17;2.22;;;;;;;;;;5053544;28;20045;-86
2023/11/15 06:34:02;;;;;;;15.30;2.42;;;;;;;;;;5052287;28;20531;-86
2023/11/15 06:36:29;;;;;;;10.45;2.35;;;;;;;;;;5053691;28;20017;-85
2023/11/15 06:38:55;;;;;;;7.72;1.30;;;;;;;;;;5053546;28;20036;-85
2023/11/15 06:41:20;;;;;;;18.30;1.83;;;;;;;;;;5053848;28;20025;-85
2023/11/15 06:43:45;;;;;;;10.52;1.42;;;;;;;;;;5053413;28;20036;-84
2023/11/15 06:46:15;;;;;;;18.15;2.20;;;;;;;;;;5052371;28;20106;-85
2023/11/15 06:48:42;;;;;;;13.48;2.05;;;;;;;;;;5054856;28;20021;-85
2023/11/15 06:51:08;;;;;;;11.75;1.30;;;;;;;;;;5067221;28;20021;-84
2023/11/15 06:53:33;;;;;;;15.32;1.70;;;;;;;;;;5067964;28;20042;-84
2023/11/15 06:55:58;;;;;;;14.90;2.45;;;;;;;;;;5057921;28;20033;-84
2023/11/15 06:58:25;;;;;;;15.93;1.92;;;;;;;;;;5064287;28;20404;-84
2023/11/15 07:00:51;;;;;;;7.40;1.40;;;;;;;;;;5067210;28;20017;-84
2023/11/15 07:03:17;;;;;;;10.68;1.95;;;;;;;;;;5051132;28;20433;-84
2023/11/15 07:05:48;;;;;;;10.05;1.50;;;;;;;;;;5068805;28;20073;-84
2023/11/15 07:08:13;;;;;;;10.40;1.40;;;;;;;;;;5061656;28;20060;-84
2023/11/15 07:10:40;;;;;;;9.00;1.50;;;;;;;;;;5045671;28;20056;-84
2023/11/15 07:13:06;;;;;;;11.30;1.90;;;;;;;;;;5042469;28;20661;-86
2023/11/15 07:15:31;;;;;;;9.85;2.03;;;;;;;;;;5043874;28;20058;-84
2023/11/15 07:17:57;;;;;;;15.00;2.65;;;;;;;;;;5046434;28;20029;-85
2023/11/15 07:20:22;;;;;;;12.68;2.58;;;;;;;;;;5063178;28;20044;-84
2023/11/15 07:22:49;;;;;;;12.75;1.80;;;;;;;;;;5055504;28;20029;-85
2023/11/15 07:25:15;;;;;;;6.68;1.55;;;;;;;;;;5051514;28;21665;-85
2023/11/15 07:27:40;;;;;;;11.77;2.08;;;;;;;;;;5052794;28;20036;-85
2023/11/15 07:30:07;;;;;;;10.45;1.70;;;;;;;;;;5054560;28;20024;-87
2023/11/15 07:32:33;;;;;;;13.50;2.15;;;;;;;;;;5063058;28;20345;-85
2023/11/15 07:34:58;;;;;;;21.80;3.00;;;;;;;;;;5051308;28;20014;-85
2023/11/15 07:37:24;;;;;;;13.23;1.90;;;;;;;;;;5051452;28;20075;-83
2023/11/15 07:39:49;;;;;;;13.00;2.05;;;;;;;;;;5052778;28;20472;-85
2023/11/15 07:42:15;;;;;;;15.27;2.00;;;;;;;;;;5056959;28;20021;-85
2023/11/15 07:44:41;;;;;;;7.65;1.60;;;;;;;;;;5059954;28;20036;-86
2023/11/15 07:47:06;;;;;;;11.45;1.80;;;;;;;;;;5067307;28;20063;-86
2023/11/15 07:49:31;;;;;;;21.05;2.15;;;;;;;;;;5051529;28;20021;-86
2023/11/15 07:51:56;;;;;;;11.10;1.77;;;;;;;;;;5059345;28;20029;-86
2023/11/15 07:54:23;;;;;;;17.35;2.17;;;;;;;;;;5051926;28;20021;-85
2023/11/15 07:56:48;;;;;;;15.20;1.98;;;;;;;;;;5052021;28;20024;-87
2023/11/15 07:59:14;;;;;;;19.50;2.28;;;;;;;;;;5051976;28;20361;-87
2023/11/15 08:01:42;;;;;;;11.88;2.10;;;;;;;;;;5051982;28;20025;-86
2023/11/15 08:04:07;;;;;;;18.73;3.33;;;;;;;;;;5055524;28;20017;-87
2023/11/15 08:06:33;;;;;;;15.93;1.83;;;;;;;;;;5062145;28;20021;-87
2023/11/15 08:08:58;;;;;;;17.63;2.42;;;;;;;;;;5055186;28;20054;-87
2023/11/15 08:11:24;;;;;;;15.05;2.17;;;;;;;;;;5051591;28;20156;-87
2023/11/15 08:13:50;;;;;;;14.90;2.25;;;;;;;;;;5051686;28;20024;-87
2023/11/15 08:16:17;;;;;;;11.98;1.77;;;;;;;;;;5051153;28;20031;-87
2023/11/15 08:18:42;;;;;;;7.18;1.10;;;;;;;;;;5052682;28;20036;-87
2023/11/15 08:21:09;;;;;;;13.55;2.17;;;;;;;;;;5055250;28;20020;-87
2023/11/15 08:23:34;;;;;;;14.43;1.90;;;;;;;;;;5060059;28;20119;-87
2023/11/15 08:26:02;;;;;;;15.38;1.48;;;;;;;;;;5057554;28;20059;-86
2023/11/15 08:28:33;;;;;;;20.60;2.05;;;;;;;;;;5052442;28;20025;-87
2023/11/15 08:30:58;;;;;;;7.25;1.85;;;;;;;;;;5062313;28;20119;-86
2023/11/15 08:33:26;;;;;;;18.13;1.85;;;;;;;;;;5051939;28;20079;-87
2023/11/15 08:35:51;;;;;;;14.32;2.00;;;;;;;;;;5051461;28;20425;-87
2023/11/15 08:38:18;;;;;;;10.23;1.42;;;;;;;;;;5051515;28;20049;-87
2023/11/15 08:40:48;;;;;;;15.10;2.20;;;;;;;;;;5051917;28;20379;-87
2023/11/15 08:43:14;;;;;;;10.02;1.55;;;;;;;;;;5051546;28;20063;-88
2023/11/15 08:45:41;;;;;;;10.88;1.70;;;;;;;;;;5065415;28;20017;-86
2023/11/15 08:48:08;;;;;;;15.15;2.40;;;;;;;;;;5051550;28;20021;-88
2023/11/15 08:50:34;;;;;;;12.20;1.98;;;;;;;;;;5051688;28;20028;-86
2023/11/15 08:52:59;;;;;;;14.30;1.55;;;;;;;;;;5051459;28;20456;-86
2023/11/15 08:55:24;;;;;;;18.45;2.35;;;;;;;;;;5051287;28;20074;-86
2023/11/15 08:57:50;;;;;;;18.02;2.35;;;;;;;;;;5051554;28;20056;-86
2023/11/15 09:00:16;;;;;;;10.65;1.55;;;;;;;;;;5053119;28;20032;-86
2023/11/15 09:02:44;;;;;;;16.58;2.15;;;;;;;;;;5062674;28;20021;-87
2023/11/15 09:05:10;;;;;;;19.20;2.60;;;;;;;;;;5055181;28;20218;-87
2023/11/15 09:07:37;;;;;;;6.43;1.73;;;;;;;;;;5054570;28;20029;-87
2023/11/15 09:10:04;;;;;;;17.55;2.45;;;;;;;;;;5055371;28;20345;-86
2023/11/15 09:12:31;;;;;;;14.25;1.50;;;;;;;;;;5054715;28;20017;-86
2023/11/15 09:14:58;;;;;;;15.15;1.92;;;;;;;;;;5054847;28;20021;-88
2023/11/15 09:17:26;;;;;;;10.20;1.52;;;;;;;;;;5054269;28;20491;-87
2023/11/15 09:19:56;;;;;;;18.58;1.70;;;;;;;;;;5054938;28;20414;-87
2023/11/15 09:22:22;;;;;;;9.73;2.00;;;;;;;;;;5068688;28;20013;-87
2023/11/15 09:24:53;;;;;;;17.35;2.45;;;;;;;;;;5056345;28;20027;-87
2023/11/15 09:27:23;;;;;;;9.25;1.75;;;;;;;;;;5060942;28;20032;-87
2023/11/15 09:29:51;;;;;;;9.00;1.63;;;;;;;;;;5054272;28;20102;-87
2023/11/15 09:32:16;;;;;;;14.38;2.55;;;;;;;;;;5054390;28;20024;-86
2023/11/15 09:34:41;;;;;;;15.23;2.17;;;;;;;;;;5067787;28;20016;-87
2023/11/15 09:37:07;;;;;;;14.40;2.40;;;;;;;;;;5060255;28;20012;-87
2023/11/15 09:39:33;;;;;;;19.33;1.90;;;;;;;;;;5056288;28;20025;-86
2023/11/15 09:41:58;;;;;;;15.00;1.67;;;;;;;;;;5054739;28;20093;-86
2023/11/15 09:44:24;;;;;;;14.23;1.80;;;;;;;;;;5054306;28;20058;-86
2023/11/15 09:46:53;;;;;;;13.98;2.53;;;;;;;;;;5054099;28;20410;-86
2023/11/15 09:49:19;;;;;;;9.20;1.83;;;;;;;;;;5054005;28;20108;-86
2023/11/15 09:51:45;;;;;;;8.68;1.63;;;;;;;;;;5053993;28;20029;-86
2023/11/15 09:54:12;;;;;;;11.65;2.08;;;;;;;;;;5053833;28;20017;-85
2023/11/15 09:56:37;;;;;;;8.63;1.80;;;;;;;;;;5053953;28;20017;-84
2023/11/15 09:59:03;;;;;;;8.55;2.22;;;;;;;;;;5053968;28;20025;-85
2023/11/15 10:01:28;;;;;;;13.55;2.35;;;;;;;;;;5064123;28;20073;-86
2023/11/15 10:03:54;;;;;;;11.18;2.13;;;;;;;;;;5057746;28;20083;-86
2023/11/15 10:06:19;;;;;;;13.95;2.78;;;;;;;;;;5053802;28;20028;-86
2023/11/15 10:08:54;;;;;;;10.32;2.17;;;;;;;;;;5053530;28;20071;-85
2023/11/15 10:11:20;;;;;;;8.10;2.53;;;;;;;;;;5046971;28;20380;-85
2023/11/15 10:13:49;;;;;;;10.40;2.25;;;;;;;;;;5060480;28;20397;-86
2023/11/15 10:16:24;;;;;;;11.02;2.40;;;;;;;;;;5067558;28;20017;-85
2023/11/15 10:18:50;;;;;;;11.40;2.55;;;;;;;;;;5053131;28;20032;-85
2023/11/15 10:21:16;;;;;;;10.07;2.28;;;;;;;;;;5072203;28;20581;-85
2023/11/15 10:23:44;;;;;;;9.95;2.00;;;;;;;;;;5062695;28;20025;-86
2023/11/15 10:26:10;;;;;;;15.50;2.42;;;;;;;;;;5070286;28;20059;-86
2023/11/15 10:28:43;;;;;;;10.23;2.35;;;;;;;;;;5058710;28;20016;-85
2023/11/15 10:31:14;;;;;;;9.10;2.22;;;;;;;;;;5073322;28;20421;-86
2023/11/15 10:33:45;;;;;;;17.08;2.65;;;;;;;;;;5059115;28;20383;-85
2023/11/15 10:36:18;;;;;;;9.75;2.60;;;;;;;;;;5061551;28;20029;-85
2023/11/15 10:38:50;;;;;;;11.23;2.38;;;;;;;;;;5053011;28;20013;-85
2023/11/15 10:41:17;;;;;;;7.03;2.58;;;;;;;;;;5053496;28;20032;-86
2023/11/15 10:44:02;;;;;;;11.93;2.63;;;;;;;;;;5054006;28;20017;-85
2023/11/15 10:46:31;;;;;;;10.90;2.20;;;;;;;;;;5053029;28;20159;-85
2023/11/15 10:48:57;;;;;;;8.57;2.00;;;;;;;;;;5058437;28;20036;-85
2023/11/15 10:51:24;;;;;;;8.35;2.00;;;;;;;;;;5061868;28;20017;-85
2023/11/15 10:53:50;;;;;;;12.00;2.25;;;;;;;;;;5052733;28;20024;-85
2023/11/15 10:56:15;;;;;;;10.02;2.85;;;;;;;;;;5053126;28;20028;-85
2023/11/15 10:58:46;;;;;;;7.05;2.08;;;;;;;;;;5053704;28;20017;-85
2023/11/15 11:01:13;;;;;;;10.95;2.50;;;;;;;;;;5052746;28;20017;-85
2023/11/15 11:03:40;;;;;;;7.20;2.00;;;;;;;;;;5052553;28;20476;-85
2023/11/15 11:06:12;;;;;;;10.88;2.60;;;;;;;;;;5072212;28;20150;-85
2023/11/15 11:08:53;;;;;;;8.38;1.95;;;;;;;;;;5059597;28;20028;-85
2023/11/15 11:11:22;;;;;;;9.23;2.17;;;;;;;;;;5046130;28;20023;-85
2023/11/15 11:14:06;;;;;;;6.85;2.03;;;;;;;;;;5059049;28;20734;-84
2023/11/15 11:16:34;;;;;;;11.52;2.53;;;;;;;;;;5054437;28;20430;-84
2023/11/15 11:19:21;;;;;;;13.63;1.70;;;;;;;;;;5057954;28;20035;-84
2023/11/15 11:22:08;;;;;;;10.35;2.15;;;;;;;;;;5053471;28;20048;-84
2023/11/15 11:24:35;;;;;;;11.32;2.50;;;;;;;;;;5051462;28;20017;-84
2023/11/15 11:27:16;;;;;;;8.70;1.77;;;;;;;;;;5050021;28;20082;-83
2023/11/15 11:29:48;;;;;;;7.05;1.98;;;;;;;;;;5052674;28;20021;-86
2023/11/15 11:32:20;;;;;;;7.03;2.17;;;;;;;;;;5051968;28;20411;-86
2023/11/15 11:35:01;;;;;;;9.63;2.42;;;;;;;;;;5053512;28;20094;-85
2023/11/15 11:37:50;;;;;;;10.43;2.13;;;;;;;;;;5081387;28;20025;-86
2023/11/15 11:40:23;;;;;;;12.18;2.03;;;;;;;;;;5084621;28;20116;-85
2023/11/15 11:42:52;;;;;;;10.65;2.08;;;;;;;;;;5052593;28;20032;-85
2023/11/15 11:45:18;;;;;;;15.07;1.85;;;;;;;;;;5051040;28;20027;-85
2023/11/15 11:47:46;;;;;;;10.90;1.80;;;;;;;;;;5059924;28;20095;-86
2023/11/15 11:50:16;;;;;;;12.25;2.13;;;;;;;;;;5055833;28;20488;-86
2023/11/15 11:52:41;;;;;;;16.67;2.03;;;;;;;;;;5052733;28;20017;-86
2023/11/15 11:55:08;;;;;;;13.85;2.05;;;;;;;;;;5051244;28;20023;-86
2023/11/15 11:57:34;;;;;;;4.20;1.73;;;;;;;;;;5052411;28;20032;-86
2023/11/15 12:00:11;;;;;;;12.60;2.20;;;;;;;;;;5063217;28;20029;-85
2023/11/15 12:02:43;;;;;;;7.05;2.42;;;;;;;;;;5052776;28;20425;-85
2023/11/15 12:05:12;;;;;;;6.25;2.08;;;;;;;;;;5052200;28;20045;-85
2023/11/15 12:07:44;;;;;;;5.35;2.35;;;;;;;;;;5051025;28;20045;-85
2023/11/15 12:10:13;;;;;;;2.45;1.27;;;;;;;;;;5050981;28;20021;-85
2023/11/15 12:12:39;;;;;;;9.00;2.20;;;;;;;;;;5051174;28;20080;-85
2023/11/15 12:15:15;;;;;;;6.85;2.28;;;;;;;;;;5051199;28;20579;-85
2023/11/15 12:17:41;;;;;;;10.35;1.58;;;;;;;;;;5053887;28;20016;-85
2023/11/15 12:20:13;;;;;;;7.30;1.90;;;;;;;;;;5066051;28;20043;-85
2023/11/15 12:22:43;;;;;;;11.23;2.22;;;;;;;;;;5068618;28;20284;-84
2023/11/15 12:25:13;;;;;;;6.53;1.80;;;;;;;;;;5059196;28;20025;-85
2023/11/15 12:27:39;;;;;;;10.38;2.00;;;;;;;;;;5050729;28;20112;-85
2023/11/15 12:30:07;;;;;;;8.68;1.98;;;;;;;;;;5067558;28;20107;-83
2023/11/15 12:32:34;;;;;;;6.03;1.60;;;;;;;;;;5051268;28;20352;-84
2023/11/15 12:34:59;;;;;;;8.82;1.60;;;;;;;;;;5053246;28;20407;-84
2023/11/15 12:37:26;;;;;;;8.65;1.38;;;;;;;;;;5067199;28;20066;-85
2023/11/15 12:39:51;;;;;;;3.45;1.48;;;;;;;;;;5060071;28;20021;-83
2023/11/15 12:42:25;;;;;;;7.95;1.73;;;;;;;;;;5059957;28;20047;-84
2023/11/15 12:44:50;;;;;;;5.55;1.55;;;;;;;;;;5055864;28;20025;-84
2023/11/15 12:47:16;;;;;;;6.65;1.25;;;;;;;;;;5054108;28;20017;-85
2023/11/15 12:49:42;;;;;;;4.43;1.40;;;;;;;;;;5054308;28;20096;-84
2023/11/15 12:52:07;;;;;;;6.75;1.50;;;;;;;;;;5054064;28;20012;-85
2023/11/15 12:54:35;;;;;;;8.40;1.40;;;;;;;;;;5063078;28;20136;-85
2023/11/15 12:57:04;;;;;;;3.72;1.05;;;;;;;;;;5058999;28;20487;-84
2023/11/15 12:59:33;;;;;;;4.40;0.90;;;;;;;;;;5055270;28;20524;-84
2023/11/15 13:02:00;;;;;;;10.48;1.38;;;;;;;;;;5068930;28;20375;-83
2023/11/15 13:04:26;;;;;;;2.60;0.95;;;;;;;;;;5047727;28;20476;-84
2023/11/15 13:06:52;;;;;;;6.55;1.13;;;;;;;;;;5063526;28;20029;-84
2023/11/15 13:09:22;;;;;;;4.15;1.00;;;;;;;;;;5051779;28;20050;-84
2023/11/15 13:11:49;;;;;;;6.50;1.17;;;;;;;;;;5053772;28;20747;-85
2023/11/15 13:14:18;;;;;;;5.47;1.90;;;;;;;;;;5058736;28;20020;-84
2023/11/15 13:16:46;;;;;;;9.38;1.70;;;;;;;;;;5063028;28;20021;-84
2023/11/15 13:19:11;;;;;;;10.02;1.50;;;;;;;;;;5056983;28;20013;-84
2023/11/15 13:21:37;;;;;;;3.30;0.88;;;;;;;;;;5058652;28;20120;-84
2023/11/15 13:24:02;;;;;;;5.88;1.25;;;;;;;;;;5053955;28;20021;-83
2023/11/15 13:26:28;;;;;;;7.28;1.10;;;;;;;;;;5054454;28;20024;-84
2023/11/15 13:28:55;;;;;;;6.65;1.00;;;;;;;;;;5065461;28;20017;-83
2023/11/15 13:31:23;;;;;;;1.75;0.80;;;;;;;;;;5053793;28;20036;-84
2023/11/15 13:33:49;;;;;;;5.07;0.93;;;;;;;;;;5057425;28;20119;-81
2023/11/15 13:36:18;;;;;;;5.78;1.13;;;;;;;;;;5069014;28;20013;-80
2023/11/15 13:38:44;;;;;;;6.95;0.65;;;;;;;;;;5069985;28;20008;-81
2023/11/15 13:41:12;;;;;;;3.00;0.75;;;;;;;;;;5063091;28;20024;-80
2023/11/15 13:43:38;;;;;;;4.75;0.70;;;;;;;;;;5072251;28;20024;-80
2023/11/15 13:46:04;;;;;;;3.25;0.70;;;;;;;;;;5071226;28;20388;-80
2023/11/15 13:48:30;;;;;;;3.83;0.77;;;;;;;;;;5071715;28;20062;-80
2023/11/15 13:50:55;;;;;;;3.53;0.90;;;;;;;;;;5058339;28;20032;-81
2023/11/15 13:53:20;;;;;;;4.25;0.80;;;;;;;;;;5072042;28;20017;-80
2023/11/15 13:55:49;;;;;;;5.93;0.90;;;;;;;;;;5067437;28;20021;-80
2023/11/15 13:58:15;;;;;;;6.53;1.08;;;;;;;;;;5063441;28;20472;-80
2023/11/15 14:00:41;;;;;;;1.80;0.60;;;;;;;;;;5071785;28;20035;-80
2023/11/15 14:03:07;;;;;;;2.42;0.70;;;;;;;;;;5072086;28;20024;-80
2023/11/15 14:05:33;;;;;;;8.45;1.00;;;;;;;;;;5071066;28;20028;-80
2023/11/15 14:07:58;;;;;;;10.25;1.20;;;;;;;;;;5053797;28;20017;-80
2023/11/15 14:10:29;;;;;;;4.22;1.15;;;;;;;;;;5065242;28;20020;-80
2023/11/15 14:13:08;;;;;;;7.35;0.98;;;;;;;;;;5063807;28;20097;-80
2023/11/15 14:15:34;;;;;;;3.30;1.52;;;;;;;;;;5071513;28;20013;-80
2023/11/15 14:18:00;;;;;;;7.45;0.80;;;;;;;;;;5072891;28;20372;-80
2023/11/15 14:20:26;;;;;;;2.40;0.95;;;;;;;;;;5073231;28;20099;-80
2023/11/15 14:22:54;;;;;;;5.95;1.00;;;;;;;;;;5069362;28;20092;-80
2023/11/15 14:25:20;;;;;;;7.65;1.10;;;;;;;;;;5071249;28;20016;-80
2023/11/15 14:27:55;;;;;;;2.22;0.70;;;;;;;;;;5066297;28;20020;-80
2023/11/15 14:30:23;;;;;;;3.90;1.00;;;;;;;;;;5072706;28;20376;-80
2023/11/15 14:32:48;;;;;;;8.27;1.33;;;;;;;;;;5065510;28;20397;-80